Overview Statistics Trail Chart Weather Telemetry Raw packets
 

This is the latest recevied weather packets stored in our database for station/object KQ7A. If no packets are shown the sender has not sent any weather packets the latest 10 day(s).

<< 12 13 14 15 16 17 18 >>
Time Temp. Humidity Pressure Rain* Wind** Luminosity Snow
1788596457 15.56° C 48% 1017.4 hPa 0 mm - 0 W/m² -
1788596155 15.56° C 49% 1017.4 hPa 0 mm - 0 W/m² -
1788595851 15° C 50% 1017.4 hPa 0 mm - 0 W/m² -
1788595550 15° C 50% 1017.4 hPa 0 mm - 0 W/m² -
1788595245 15° C 50% 1017.5 hPa 0 mm - 0 W/m² -
1788594938 15° C 49% 1017.1 hPa 0 mm - 0 W/m² -
1788594633 14.44° C 51% 1017.4 hPa 0 mm - 0 W/m² -
1788594332 13.33° C 54% 1017.4 hPa 0 mm - 0 W/m² -
1788594028 13.89° C 54% 1017.4 hPa 0 mm - 0 W/m² -
1788593723 10.56° C 65% 1017.5 hPa 0 mm - 0 W/m² -
1788593420 10° C 65% 1017.5 hPa 0 mm - 0 W/m² -
1788593118 8.89° C 68% 1017.5 hPa 0 mm - 0 W/m² -
1788592820 9.44° C 71% 1017.6 hPa 0 mm - 0 W/m² -
1788592511 9.44° C 68% 1017.6 hPa 0 mm - 0 W/m² -
1788592211 10° C 67% 1017.3 hPa 0 mm - 0 W/m² -
1788591907 10.56° C 63% 1017.4 hPa 0 mm - 0 W/m² -
1788591602 9.44° C 66% 1017.3 hPa 0 mm - 0 W/m² -
1788591300 9.44° C 67% 1017.4 hPa 0 mm - 0 W/m² -
1788590995 10.56° C 64% 1017.5 hPa 0 mm - 0 W/m² -
1788590690 10.56° C 63% 1017.5 hPa 0 mm - 0 W/m² -
1788590385 10° C 65% 1017.3 hPa 0 mm - 0 W/m² -
1788590079 10° C 64% 1017.1 hPa 0 mm - 0 W/m² -
1788589776 10° C 66% 1017.6 hPa 0 mm - 0 W/m² -
1788589469 10° C 64% 1017.5 hPa 0 mm - 0 W/m² -
1788589164 10° C 63% 1017.3 hPa 0 mm - 0 W/m² -

* Rain latest hour (hover to see other rain measurements)
** Current wind speed in m/s (hover to see current wind gust speed)